createdAt,value
2017-11-17T00:02:26.751Z,29.47
2017-11-17T00:04:54.411Z,28.63
2017-11-17T00:07:21.992Z,27.10
2017-11-17T00:09:49.582Z,27.53
2017-11-17T00:12:17.939Z,29.97
2017-11-17T00:14:45.554Z,30.67
2017-11-17T00:17:13.135Z,30.63
2017-11-17T00:19:40.724Z,29.17
2017-11-17T00:22:08.280Z,29.60
2017-11-17T00:24:35.883Z,28.40
2017-11-17T00:27:04.215Z,30.63
2017-11-17T00:29:31.829Z,30.40
2017-11-17T00:32:03.793Z,30.50
2017-11-17T00:34:32.739Z,29.97
2017-11-17T00:37:04.067Z,28.50
2017-11-17T00:39:32.726Z,29.37
2017-11-17T00:42:00.322Z,29.80
2017-11-17T00:44:34.046Z,28.30
2017-11-17T00:47:03.921Z,29.63
2017-11-17T00:49:36.987Z,32.03
2017-11-17T00:52:04.616Z,30.97
2017-11-17T00:54:34.527Z,30.27
2017-11-17T00:57:02.396Z,29.57
2017-11-17T00:59:30.360Z,32.47
2017-11-17T01:02:00.337Z,31.30
2017-11-17T01:04:33.543Z,32.80
2017-11-17T01:07:03.948Z,31.17
2017-11-17T01:09:33.743Z,32.47
2017-11-17T01:12:02.616Z,33.47
2017-11-17T01:14:30.232Z,32.90
2017-11-17T01:17:00.457Z,31.60
2017-11-17T01:19:30.917Z,33.03
2017-11-17T01:21:58.560Z,30.93
2017-11-17T01:24:26.681Z,32.87
2017-11-17T01:26:55.043Z,31.90
2017-11-17T01:29:22.606Z,32.53
2017-11-17T01:31:50.298Z,33.20
2017-11-17T01:34:17.878Z,31.70
2017-11-17T01:36:45.703Z,31.90
2017-11-17T01:39:14.040Z,31.90
2017-11-17T01:41:42.017Z,32.37
2017-11-17T01:44:09.587Z,32.83
2017-11-17T01:46:37.179Z,29.60
2017-11-17T01:49:05.803Z,29.57
2017-11-17T01:51:33.479Z,28.87
2017-11-17T01:54:01.045Z,27.93
2017-11-17T01:56:28.608Z,29.70
2017-11-17T01:58:56.171Z,28.87
2017-11-17T02:01:23.732Z,28.47
2017-11-17T02:03:51.324Z,28.47
2017-11-17T02:06:19.673Z,29.17
2017-11-17T02:08:47.241Z,27.33
2017-11-17T02:11:14.822Z,30.07
2017-11-17T02:13:43.442Z,27.53
2017-11-17T02:16:11.011Z,31.27
2017-11-17T02:18:38.578Z,29.53
2017-11-17T02:21:06.124Z,27.93
2017-11-17T02:23:33.684Z,29.37
2017-11-17T02:26:01.270Z,28.87
2017-11-17T02:28:28.808Z,29.50
2017-11-17T02:30:56.440Z,28.17
2017-11-17T02:33:24.768Z,27.80
2017-11-17T02:35:52.360Z,27.50
2017-11-17T02:38:19.934Z,27.27
2017-11-17T02:40:48.278Z,28.70
2017-11-17T02:43:15.835Z,27.33
2017-11-17T02:45:43.406Z,24.73
2017-11-17T02:48:10.974Z,24.93
2017-11-17T02:50:38.542Z,26.37
2017-11-17T02:53:06.111Z,25.00
2017-11-17T02:55:33.675Z,25.83
2017-11-17T02:58:02.010Z,25.90
2017-11-17T03:00:29.568Z,24.80
2017-11-17T03:02:57.166Z,24.70
2017-11-17T03:05:24.783Z,23.90
2017-11-17T03:07:53.142Z,24.17
2017-11-17T03:10:20.712Z,25.90
2017-11-17T03:12:48.283Z,22.67
2017-11-17T03:15:15.881Z,24.50
2017-11-17T03:17:43.449Z,24.90
2017-11-17T03:20:11.034Z,25.03
2017-11-17T03:22:40.240Z,24.37
2017-11-17T03:25:07.836Z,24.30
2017-11-17T03:27:35.415Z,23.90
2017-11-17T03:30:03.000Z,22.03
2017-11-17T03:32:30.572Z,23.07
2017-11-17T03:34:58.894Z,20.20
2017-11-17T03:37:31.501Z,23.60
2017-11-17T03:40:02.162Z,20.67
2017-11-17T03:42:34.411Z,19.43
2017-11-17T03:45:02.017Z,21.10
2017-11-17T03:47:32.747Z,18.00
2017-11-17T03:50:07.282Z,20.10
2017-11-17T03:55:21.044Z,19.80
2017-11-17T03:57:52.690Z,19.73
2017-11-17T04:00:23.921Z,19.93
2017-11-17T04:02:54.546Z,20.97
2017-11-17T04:05:33.004Z,18.10
2017-11-17T04:08:07.123Z,18.83
2017-11-17T04:13:26.761Z,15.77
2017-11-17T04:15:57.155Z,14.60
2017-11-17T04:21:18.223Z,14.00
2017-11-17T04:24:01.842Z,14.57
2017-11-17T04:26:39.984Z,11.00
2017-11-17T04:34:25.950Z,12.20
2017-11-17T04:36:53.499Z,12.40
2017-11-17T04:39:21.072Z,11.17
2017-11-17T04:41:48.721Z,11.13
2017-11-17T04:44:16.349Z,10.83
2017-11-17T04:46:44.772Z,11.43
2017-11-17T04:49:12.472Z,10.87
2017-11-17T04:51:40.024Z,11.37
2017-11-17T04:54:07.574Z,12.20
2017-11-17T04:56:35.205Z,10.67
2017-11-17T04:59:03.814Z,9.90
2017-11-17T05:01:31.357Z,11.50
2017-11-17T05:03:59.104Z,9.73
2017-11-17T05:06:26.757Z,11.00
2017-11-17T05:08:55.115Z,11.10
2017-11-17T05:11:22.735Z,10.37
2017-11-17T05:13:50.292Z,14.03
2017-11-17T05:16:17.895Z,9.50
2017-11-17T05:18:46.718Z,11.30
2017-11-17T05:21:14.304Z,11.17
2017-11-17T05:23:41.916Z,10.80
2017-11-17T05:26:09.486Z,10.33
2017-11-17T05:28:37.842Z,10.23
2017-11-17T05:31:05.403Z,9.97
2017-11-17T05:33:32.982Z,10.73
2017-11-17T05:36:00.570Z,10.47
2017-11-17T05:38:28.168Z,10.20
2017-11-17T05:40:55.731Z,10.90
2017-11-17T05:43:23.327Z,11.03
2017-11-17T05:45:51.673Z,10.70
2017-11-17T05:48:19.504Z,10.73
2017-11-17T05:50:47.065Z,11.07
2017-11-17T05:53:14.642Z,9.03
2017-11-17T05:55:42.215Z,9.90
2017-11-17T05:58:09.804Z,9.90
2017-11-17T06:00:37.847Z,12.10
2017-11-17T06:03:05.414Z,10.50
2017-11-17T06:05:33.018Z,9.87
2017-11-17T06:08:01.345Z,10.50
2017-11-17T06:10:28.959Z,9.50
2017-11-17T06:12:57.679Z,10.93
2017-11-17T06:15:25.283Z,9.00
2017-11-17T06:17:52.806Z,9.60
2017-11-17T06:20:20.401Z,9.40
2017-11-17T06:22:48.042Z,9.17
2017-11-17T06:25:15.588Z,10.13
2017-11-17T06:27:43.165Z,8.63
2017-11-17T06:30:10.738Z,8.40
2017-11-17T06:32:38.353Z,9.17
2017-11-17T06:35:05.909Z,9.70
2017-11-17T09:06:09.308Z,8.93
2017-11-17T09:08:36.885Z,7.97
2017-11-17T09:11:04.485Z,8.30
2017-11-17T09:13:32.087Z,6.90
2017-11-17T09:15:59.665Z,7.80
2017-11-17T09:18:28.013Z,6.93
2017-11-17T09:20:55.691Z,8.60
2017-11-17T09:23:23.268Z,8.30
2017-11-17T09:25:50.846Z,8.03
2017-11-17T09:28:20.067Z,8.03
2017-11-17T09:30:47.650Z,6.93
2017-11-17T09:33:15.255Z,8.00
2017-11-17T09:35:42.861Z,6.63
2017-11-17T09:38:10.435Z,8.53
2017-11-17T09:40:38.026Z,7.70
2017-11-17T09:43:05.606Z,8.53
2017-11-17T09:45:33.939Z,7.93
2017-11-17T09:48:01.527Z,7.70
2017-11-17T09:50:29.107Z,6.70
2017-11-17T09:52:57.532Z,7.97
2017-11-17T09:55:25.153Z,8.67
2017-11-17T09:57:53.497Z,7.57
2017-11-17T10:00:21.068Z,6.17
2017-11-17T10:02:48.680Z,6.40
2017-11-17T10:05:16.248Z,7.53
2017-11-17T10:07:43.814Z,6.00
2017-11-17T10:10:11.419Z,6.03
2017-11-17T10:12:39.000Z,6.20
2017-11-17T10:15:07.383Z,6.33
2017-11-17T10:17:35.749Z,6.53
2017-11-17T10:20:03.367Z,7.70
2017-11-17T10:22:30.954Z,5.27
2017-11-17T10:24:58.530Z,5.03
2017-11-17T10:27:26.106Z,5.80
2017-11-17T10:29:54.448Z,6.60
2017-11-17T10:32:22.021Z,5.60
2017-11-17T10:34:49.622Z,6.07
2017-11-17T10:37:17.282Z,6.70
2017-11-17T10:39:45.655Z,6.10
2017-11-17T10:42:13.985Z,5.53
2017-11-17T10:44:41.560Z,6.63
2017-11-17T10:47:09.140Z,6.17
2017-11-17T10:49:37.495Z,5.70
2017-11-17T10:52:05.258Z,5.97
2017-11-17T10:54:32.851Z,4.97
2017-11-17T10:57:01.190Z,5.30
2017-11-17T10:59:28.800Z,6.50
2017-11-17T11:01:57.178Z,5.13
2017-11-17T11:04:25.560Z,5.77
2017-11-17T11:06:53.890Z,5.67
2017-11-17T11:09:21.467Z,6.47
2017-11-17T11:11:52.984Z,7.40
2017-11-17T11:14:20.585Z,7.40
2017-11-17T11:16:48.151Z,5.93
2017-11-17T11:19:15.713Z,5.43
2017-11-17T11:21:43.289Z,5.67
2017-11-17T11:24:10.859Z,5.50
2017-11-17T11:26:39.223Z,6.23
2017-11-17T11:29:07.578Z,6.47
2017-11-17T11:31:35.155Z,6.40
2017-11-17T11:34:02.738Z,5.83
2017-11-17T11:36:31.159Z,5.50
2017-11-17T11:38:58.736Z,5.50
2017-11-17T11:41:26.347Z,5.30
2017-11-17T11:43:54.693Z,5.37
2017-11-17T11:46:22.268Z,5.40
2017-11-17T11:48:50.715Z,6.03
2017-11-17T11:51:18.281Z,4.30
2017-11-17T11:53:45.869Z,4.77
2017-11-17T11:56:13.435Z,4.23
2017-11-17T11:58:41.800Z,3.67
2017-11-17T12:01:09.443Z,4.80
2017-11-17T12:03:37.031Z,4.27
2017-11-17T12:06:04.694Z,5.17
2017-11-17T12:08:32.276Z,5.90
2017-11-17T12:10:59.891Z,5.73
2017-11-17T12:13:29.020Z,6.43
2017-11-17T12:15:58.619Z,8.53
2017-11-17T12:18:26.310Z,6.00
2017-11-17T12:20:58.224Z,7.63
2017-11-17T12:36:26.612Z,6.07
2017-11-17T12:38:58.488Z,7.30
2017-11-17T12:41:33.233Z,7.17
2017-11-17T12:44:00.809Z,3.73
2017-11-17T12:46:28.404Z,3.30
2017-11-17T12:48:55.973Z,3.37
2017-11-17T12:51:23.594Z,3.80
2017-11-17T12:53:51.199Z,3.97
2017-11-17T12:56:18.784Z,3.23
2017-11-17T12:58:47.213Z,2.93
2017-11-17T13:01:18.529Z,6.00
2017-11-17T13:03:46.227Z,2.77
2017-11-17T13:06:13.811Z,2.80
2017-11-17T13:08:41.418Z,2.83
2017-11-17T13:11:09.102Z,3.10
2017-11-17T13:13:36.697Z,3.80
2017-11-17T13:16:04.282Z,3.60
2017-11-17T13:18:32.625Z,3.00
2017-11-17T13:21:00.290Z,6.80
2017-11-17T13:23:33.418Z,4.30
2017-11-17T13:26:01.116Z,5.00
2017-11-17T13:28:28.684Z,4.20
2017-11-17T13:30:56.302Z,2.73
2017-11-17T13:33:24.653Z,3.40
2017-11-17T13:35:52.239Z,2.57
2017-11-17T13:38:20.567Z,2.70
2017-11-17T13:40:48.161Z,2.40
2017-11-17T13:43:15.736Z,2.80
2017-11-17T13:45:43.356Z,2.30
2017-11-17T13:48:10.927Z,3.63
2017-11-17T13:50:38.683Z,3.20
2017-11-17T13:53:06.261Z,2.43
2017-11-17T13:55:33.846Z,3.07
2017-11-17T13:58:01.734Z,5.03
2017-11-17T14:00:29.336Z,2.90
2017-11-17T14:02:56.930Z,2.60
2017-11-17T14:05:24.528Z,3.30
2017-11-17T14:07:52.184Z,2.77
2017-11-17T14:10:20.516Z,2.67
2017-11-17T14:12:48.086Z,3.73
2017-11-17T14:15:21.891Z,4.40
2017-11-17T14:17:49.617Z,3.33
2017-11-17T14:20:17.224Z,3.20
2017-11-17T14:22:44.818Z,3.70
2017-11-17T14:25:17.753Z,4.07
2017-11-17T14:27:46.799Z,10.73
2017-11-17T14:30:15.736Z,16.17
2017-11-17T14:32:44.693Z,7.30
2017-11-17T14:35:15.410Z,21.40
2017-11-17T14:37:45.270Z,15.30
2017-11-17T14:40:12.852Z,9.63
2017-11-17T14:42:40.463Z,6.03
2017-11-17T14:45:08.155Z,5.40
2017-11-17T14:47:35.749Z,5.43
2017-11-17T14:50:03.440Z,4.60
2017-11-17T14:52:31.875Z,41.60
2017-11-17T14:54:59.460Z,22.20
2017-11-17T14:57:31.339Z,10.13
2017-11-17T14:59:59.242Z,7.80
2017-11-17T15:02:26.848Z,4.30
2017-11-17T15:04:54.410Z,3.37
2017-11-17T15:07:22.024Z,4.20
2017-11-17T15:09:54.432Z,2.50
2017-11-17T15:12:22.060Z,3.67
2017-11-17T15:14:49.615Z,3.30
2017-11-17T15:17:17.187Z,4.30
2017-11-17T15:19:44.777Z,3.20
2017-11-17T15:22:12.458Z,3.40
2017-11-17T15:24:40.056Z,4.40
2017-11-17T15:27:10.765Z,3.60
2017-11-17T15:29:38.349Z,4.20
2017-11-17T15:32:05.944Z,5.70
2017-11-17T15:34:33.548Z,5.13
2017-11-17T15:37:01.919Z,4.50
2017-11-17T15:39:29.504Z,4.90
2017-11-17T15:41:57.834Z,3.50
2017-11-17T15:44:25.451Z,3.87
2017-11-17T15:46:53.050Z,3.83
2017-11-17T15:49:20.611Z,3.30
2017-11-17T15:51:48.220Z,3.90
2017-11-17T15:54:16.683Z,3.87
2017-11-17T15:56:44.279Z,3.47
2017-11-17T15:59:11.849Z,3.93
2017-11-17T16:01:39.473Z,4.30
2017-11-17T16:04:07.057Z,4.27
2017-11-17T16:06:34.644Z,4.63
2017-11-17T16:09:02.253Z,4.00
2017-11-17T16:11:29.830Z,4.33
2017-11-17T16:13:58.211Z,4.50
2017-11-17T16:16:26.643Z,4.20
2017-11-17T16:18:54.252Z,4.50
2017-11-17T16:21:22.609Z,6.30
2017-11-17T16:23:50.197Z,5.40
2017-11-17T16:26:18.552Z,6.43
2017-11-17T16:28:46.248Z,5.90
2017-11-17T16:31:13.820Z,4.50
2017-11-17T16:33:41.446Z,5.80
2017-11-17T16:36:09.108Z,5.80
2017-11-17T16:38:37.480Z,5.00
2017-11-17T16:41:05.072Z,4.83
2017-11-17T16:43:32.842Z,4.67
2017-11-17T16:46:00.426Z,4.20
2017-11-17T16:48:28.800Z,5.20
2017-11-17T16:50:56.561Z,6.30
2017-11-17T16:53:24.158Z,6.43
2017-11-17T16:55:51.727Z,8.53
2017-11-17T16:58:19.337Z,6.47
2017-11-17T17:00:46.947Z,5.90
2017-11-17T17:03:14.549Z,5.30
2017-11-17T17:05:42.902Z,5.63
2017-11-17T17:08:10.525Z,6.33
2017-11-17T17:10:38.084Z,4.43
2017-11-17T17:13:05.708Z,5.90
2017-11-17T17:15:34.103Z,6.17
2017-11-17T17:18:01.688Z,6.63
2017-11-17T17:20:29.276Z,8.80
2017-11-17T17:22:56.844Z,11.80
2017-11-17T17:25:24.445Z,13.93
2017-11-17T17:27:52.032Z,8.40
2017-11-17T17:30:19.612Z,7.30
2017-11-17T17:32:47.219Z,6.13
2017-11-17T17:35:15.614Z,9.50
2017-11-17T17:37:43.227Z,6.77
2017-11-17T17:40:10.791Z,6.73
2017-11-17T17:42:38.352Z,5.10
2017-11-17T17:45:06.269Z,5.87
2017-11-17T17:47:33.883Z,5.77
2017-11-17T17:50:01.448Z,6.40
2017-11-17T17:52:29.069Z,6.20
2017-11-17T17:54:56.658Z,5.93
2017-11-17T17:57:24.261Z,6.70
2017-11-17T17:59:51.937Z,6.63
2017-11-17T18:02:19.476Z,9.30
2017-11-17T18:04:47.840Z,10.20
2017-11-17T18:07:15.802Z,9.10
2017-11-17T18:09:43.410Z,10.17
2017-11-17T18:12:11.009Z,10.53
2017-11-17T18:14:38.595Z,10.20
2017-11-17T18:17:06.179Z,9.57
2017-11-17T18:19:33.803Z,11.30
2017-11-17T18:22:01.410Z,9.30
2017-11-17T18:24:29.758Z,10.33
2017-11-17T18:26:57.441Z,9.83
2017-11-17T18:29:24.942Z,10.27
2017-11-17T18:31:52.626Z,10.30
2017-11-17T18:34:20.209Z,9.50
2017-11-17T18:36:47.804Z,10.63
2017-11-17T18:39:15.493Z,9.30
2017-11-17T18:41:43.497Z,10.10
2017-11-17T18:44:12.662Z,10.20
2017-11-17T18:46:40.294Z,9.57
2017-11-17T18:49:07.892Z,10.90
2017-11-17T18:51:36.193Z,12.47
2017-11-17T18:54:04.595Z,10.80
2017-11-17T18:56:32.201Z,10.77
2017-11-17T18:58:59.931Z,10.47
2017-11-17T19:01:28.352Z,11.60
2017-11-17T19:03:55.937Z,13.30
2017-11-17T19:06:23.499Z,9.20
2017-11-17T19:08:51.157Z,9.83
2017-11-17T19:11:18.776Z,10.40
2017-11-17T19:13:46.438Z,9.53
2017-11-17T19:16:14.027Z,10.57
2017-11-17T19:18:41.630Z,11.70
2017-11-17T19:21:10.085Z,15.30
2017-11-17T19:23:37.692Z,11.80
2017-11-17T19:26:05.299Z,12.20
2017-11-17T19:28:32.895Z,9.50
2017-11-17T19:31:01.263Z,9.23
2017-11-17T19:33:28.855Z,9.10
2017-11-17T19:35:56.681Z,9.60
2017-11-17T19:38:24.308Z,11.13
2017-11-17T19:40:51.990Z,9.20
2017-11-17T19:43:19.636Z,9.20
2017-11-17T19:45:47.343Z,9.07
2017-11-17T19:48:15.746Z,10.70
2017-11-17T19:50:44.174Z,9.87
2017-11-17T19:53:11.849Z,9.20
2017-11-17T19:55:39.435Z,10.17
2017-11-17T19:58:07.866Z,10.20
2017-11-17T20:00:35.559Z,9.50
2017-11-17T20:03:03.201Z,9.90
2017-11-17T20:05:30.800Z,9.00
2017-11-17T20:07:58.515Z,10.97
2017-11-17T20:10:26.755Z,10.70
2017-11-17T20:12:54.425Z,11.83
2017-11-17T20:15:22.033Z,11.73
2017-11-17T20:17:49.712Z,12.77
2017-11-17T20:20:17.320Z,10.00
2017-11-17T20:22:44.994Z,11.00
2017-11-17T20:25:12.706Z,10.80
2017-11-17T20:27:41.140Z,10.90
2017-11-17T20:30:08.802Z,10.20
2017-11-17T20:32:36.403Z,10.30
2017-11-17T20:35:04.039Z,10.33
2017-11-17T20:37:31.624Z,11.13
2017-11-17T20:39:59.295Z,9.87
2017-11-17T20:42:26.880Z,8.80
2017-11-17T20:44:55.329Z,9.73
2017-11-17T20:47:22.988Z,11.67
2017-11-17T20:49:50.563Z,11.90
2017-11-17T20:52:18.203Z,11.27
2017-11-17T20:54:45.849Z,11.53
2017-11-17T20:57:13.705Z,10.17
2017-11-17T20:59:41.321Z,9.20
2017-11-17T21:02:09.675Z,9.33
2017-11-17T21:04:37.375Z,12.10
2017-11-17T21:07:05.733Z,12.80
2017-11-17T21:09:36.740Z,14.10
2017-11-17T21:12:04.352Z,9.20
2017-11-17T21:14:32.787Z,10.50
2017-11-17T21:17:03.624Z,10.90
2017-11-17T21:19:31.210Z,10.80
2017-11-17T21:21:58.783Z,11.73
2017-11-17T21:24:26.532Z,10.13
2017-11-17T21:26:56.265Z,8.03
2017-11-17T21:29:24.191Z,9.27
2017-11-17T21:31:51.892Z,10.53
2017-11-17T21:34:19.481Z,8.83
2017-11-17T21:36:47.121Z,8.93
2017-11-17T21:39:16.332Z,9.13
2017-11-17T21:41:44.013Z,9.30
2017-11-17T21:44:11.671Z,8.63
2017-11-17T21:46:40.074Z,13.57
2017-11-17T21:49:07.685Z,14.03
2017-11-17T21:51:35.615Z,11.03
2017-11-17T21:54:03.222Z,9.83
2017-11-17T21:56:30.824Z,10.17
2017-11-17T21:58:58.426Z,9.60
2017-11-17T22:01:29.122Z,10.40
2017-11-17T22:03:58.012Z,12.47
2017-11-17T22:06:26.617Z,10.13
2017-11-17T22:08:54.221Z,10.17
2017-11-17T22:11:22.599Z,9.47
2017-11-17T22:13:50.220Z,10.80
2017-11-17T22:16:17.773Z,9.53
2017-11-17T22:18:45.478Z,8.93
2017-11-17T22:21:13.128Z,10.37
2017-11-17T22:23:40.731Z,9.87
2017-11-17T22:26:09.142Z,11.00
2017-11-17T22:28:36.696Z,12.00
2017-11-17T22:31:04.373Z,10.77
2017-11-17T22:33:32.061Z,10.30
2017-11-17T22:36:00.450Z,9.83
2017-11-17T22:38:28.041Z,10.90
2017-11-17T22:40:55.616Z,10.07
2017-11-17T22:43:23.241Z,9.33
2017-11-17T22:45:51.602Z,10.10
2017-11-17T22:48:19.331Z,11.23
2017-11-17T22:50:48.001Z,10.50
2017-11-17T22:53:15.730Z,10.30
2017-11-17T22:55:44.325Z,8.80
2017-11-17T22:58:11.935Z,15.43
2017-11-17T23:00:39.519Z,9.20
2017-11-17T23:03:07.128Z,9.40
2017-11-17T23:05:34.745Z,9.70
2017-11-17T23:08:02.402Z,10.90
2017-11-17T23:10:30.010Z,9.77
2017-11-17T23:12:58.337Z,9.90
2017-11-17T23:15:26.042Z,11.07
2017-11-17T23:17:53.627Z,10.00
2017-11-17T23:20:21.951Z,10.40
2017-11-17T23:22:49.537Z,9.90
2017-11-17T23:25:17.886Z,9.37
2017-11-17T23:27:45.446Z,9.47
2017-11-17T23:30:13.040Z,9.63
2017-11-17T23:32:41.403Z,9.40
2017-11-17T23:35:09.005Z,10.40
2017-11-17T23:37:36.599Z,9.33
2017-11-17T23:40:04.160Z,8.60
2017-11-17T23:42:31.728Z,9.10
2017-11-17T23:44:59.308Z,10.10
2017-11-17T23:47:26.889Z,10.47
2017-11-17T23:49:55.289Z,7.70
2017-11-17T23:52:22.941Z,11.57
2017-11-17T23:54:51.242Z,9.77
2017-11-17T23:57:19.598Z,10.40
2017-11-17T23:59:47.192Z,10.20
